Time;durP1;ratioP1;P1;durP2;ratioP2;P2;SDS_P1;SDS_P2;PMS_P1;PMS_P2;Temp;Humidity;BMP_temperature;BMP_pressure;BME280_temperature;BME280_humidity;BME280_pressure;Samples;Min_cycle;Max_cycle;Signal;HPM_P1;HPM_P2
2023/07/19 00:00:24;;;;;;;1.60;1.50;;;;;;;;;;5067856;28;20207;-61
2023/07/19 00:02:51;;;;;;;1.80;1.67;;;;;;;;;;5066397;28;20665;-61
2023/07/19 00:05:18;;;;;;;1.27;1.27;;;;;;;;;;5059246;28;20200;-62
2023/07/19 00:07:47;;;;;;;1.58;1.50;;;;;;;;;;5047114;28;20214;-61
2023/07/19 00:10:14;;;;;;;7.00;1.63;;;;;;;;;;5047840;28;20199;-61
2023/07/19 00:12:41;;;;;;;1.67;1.58;;;;;;;;;;5047103;28;20433;-61
2023/07/19 00:15:09;;;;;;;1.30;1.30;;;;;;;;;;5047330;28;20211;-61
2023/07/19 00:17:36;;;;;;;1.42;1.40;;;;;;;;;;5047267;28;20231;-61
2023/07/19 00:20:03;;;;;;;2.60;1.50;;;;;;;;;;5047464;28;20215;-61
2023/07/19 00:22:30;;;;;;;1.35;1.33;;;;;;;;;;5047379;28;20212;-61
2023/07/19 00:24:58;;;;;;;1.52;1.40;;;;;;;;;;5047831;28;20231;-61
2023/07/19 00:27:25;;;;;;;1.27;1.25;;;;;;;;;;5047583;28;20210;-62
2023/07/19 00:30:01;;;;;;;1.27;1.27;;;;;;;;;;5051962;28;20276;-62
2023/07/19 00:32:28;;;;;;;1.63;1.35;;;;;;;;;;5050549;28;20585;-61
2023/07/19 00:34:55;;;;;;;1.20;1.20;;;;;;;;;;5066507;28;20294;-61
2023/07/19 00:37:22;;;;;;;1.52;1.52;;;;;;;;;;5064604;28;20204;-61
2023/07/19 00:39:49;;;;;;;1.63;1.52;;;;;;;;;;5058260;28;20850;-61
2023/07/19 00:42:18;;;;;;;1.20;1.20;;;;;;;;;;5047579;28;20659;-61
2023/07/19 00:44:45;;;;;;;3.92;1.83;;;;;;;;;;5048422;28;20211;-61
2023/07/19 00:47:12;;;;;;;1.40;1.30;;;;;;;;;;5048640;28;20204;-61
2023/07/19 00:49:40;;;;;;;1.17;1.17;;;;;;;;;;5059032;28;20290;-61
2023/07/19 00:52:08;;;;;;;3.95;1.58;;;;;;;;;;5059224;28;20538;-61
2023/07/19 00:54:35;;;;;;;1.17;1.15;;;;;;;;;;5050645;28;20207;-61
2023/07/19 00:57:04;;;;;;;2.08;1.83;;;;;;;;;;5069018;28;20218;-61
2023/07/19 00:59:32;;;;;;;1.70;1.50;;;;;;;;;;5056338;28;20242;-61
2023/07/19 01:01:59;;;;;;;1.63;1.52;;;;;;;;;;5057697;28;20219;-61
2023/07/19 01:04:27;;;;;;;1.55;1.50;;;;;;;;;;5063912;28;20203;-61
2023/07/19 01:06:54;;;;;;;1.45;1.35;;;;;;;;;;5060920;28;20203;-61
2023/07/19 01:09:21;;;;;;;1.45;1.45;;;;;;;;;;5053218;28;20200;-61
2023/07/19 01:11:48;;;;;;;2.80;1.25;;;;;;;;;;5050236;28;20208;-61
2023/07/19 01:14:15;;;;;;;2.22;1.70;;;;;;;;;;5051554;28;20200;-61
2023/07/19 01:16:44;;;;;;;1.60;1.50;;;;;;;;;;5067490;28;20246;-61
2023/07/19 01:19:11;;;;;;;1.60;1.58;;;;;;;;;;5068819;28;20218;-62
2023/07/19 01:21:38;;;;;;;1.70;1.67;;;;;;;;;;5068766;28;20221;-61
2023/07/19 01:24:06;;;;;;;1.88;1.70;;;;;;;;;;5066632;28;20200;-62
2023/07/19 01:26:33;;;;;;;4.38;1.60;;;;;;;;;;5052249;28;20581;-61
2023/07/19 01:29:01;;;;;;;1.50;1.40;;;;;;;;;;5070082;28;20226;-61
2023/07/19 01:31:28;;;;;;;1.33;1.33;;;;;;;;;;5068024;28;20210;-61
2023/07/19 01:33:55;;;;;;;3.42;1.58;;;;;;;;;;5053255;28;20215;-61
2023/07/19 01:36:22;;;;;;;3.05;1.90;;;;;;;;;;5067518;28;20211;-61
2023/07/19 01:38:49;;;;;;;2.22;1.60;;;;;;;;;;5059504;28;20228;-62
2023/07/19 01:41:18;;;;;;;1.73;1.40;;;;;;;;;;5061544;28;20207;-61
2023/07/19 01:43:45;;;;;;;1.10;1.10;;;;;;;;;;5051685;28;20318;-61
2023/07/19 01:46:12;;;;;;;1.25;1.25;;;;;;;;;;5070556;28;20674;-61
2023/07/19 01:48:39;;;;;;;2.30;1.25;;;;;;;;;;5070387;28;20214;-61
2023/07/19 01:51:06;;;;;;;1.38;1.35;;;;;;;;;;5070206;28;20211;-61
2023/07/19 01:53:33;;;;;;;1.60;1.50;;;;;;;;;;5067945;28;20670;-61
2023/07/19 01:56:00;;;;;;;1.48;1.38;;;;;;;;;;5066181;28;20933;-61
2023/07/19 01:58:28;;;;;;;2.70;1.48;;;;;;;;;;5070084;28;20223;-62
2023/07/19 02:00:56;;;;;;;1.33;1.33;;;;;;;;;;5060196;28;20208;-61
2023/07/19 02:03:23;;;;;;;1.40;1.40;;;;;;;;;;5051167;28;20211;-61
2023/07/19 02:05:56;;;;;;;4.00;1.70;;;;;;;;;;5069197;28;20211;-60
2023/07/19 02:08:23;;;;;;;1.42;1.33;;;;;;;;;;5069912;28;20211;-61
2023/07/19 02:10:50;;;;;;;1.63;1.35;;;;;;;;;;5070010;28;20219;-61
2023/07/19 02:13:17;;;;;;;1.90;1.42;;;;;;;;;;5069423;28;20210;-59
2023/07/19 02:15:47;;;;;;;2.03;1.42;;;;;;;;;;5052315;28;20226;-59
2023/07/19 02:18:14;;;;;;;1.33;1.33;;;;;;;;;;5049401;28;20929;-59
2023/07/19 02:20:45;;;;;;;1.40;1.40;;;;;;;;;;5049155;28;20674;-59
2023/07/19 02:23:12;;;;;;;1.90;1.17;;;;;;;;;;5049327;28;20199;-59
2023/07/19 02:25:41;;;;;;;3.13;1.20;;;;;;;;;;5050022;28;20243;-59
2023/07/19 02:28:08;;;;;;;2.28;1.38;;;;;;;;;;5049237;28;20208;-62
2023/07/19 02:30:35;;;;;;;1.50;1.40;;;;;;;;;;5050688;28;20204;-58
2023/07/19 02:33:04;;;;;;;1.80;1.70;;;;;;;;;;5061096;28;20545;-58
2023/07/19 02:35:31;;;;;;;1.50;1.40;;;;;;;;;;5059498;28;20665;-59
2023/07/19 02:37:58;;;;;;;1.42;1.42;;;;;;;;;;5049090;28;20203;-62
2023/07/19 02:40:25;;;;;;;1.90;1.80;;;;;;;;;;5061487;28;20226;-62
2023/07/19 02:42:52;;;;;;;1.83;1.45;;;;;;;;;;5060073;28;21734;-59
2023/07/19 02:45:19;;;;;;;1.70;1.60;;;;;;;;;;5052165;28;20203;-59
2023/07/19 02:47:46;;;;;;;1.90;1.80;;;;;;;;;;5067639;28;20211;-59
2023/07/19 02:50:14;;;;;;;1.90;1.52;;;;;;;;;;5069099;28;20222;-59
2023/07/19 02:52:41;;;;;;;1.50;1.50;;;;;;;;;;5066854;28;20211;-62
2023/07/19 02:55:09;;;;;;;2.53;1.40;;;;;;;;;;5060030;28;20207;-59
2023/07/19 02:57:36;;;;;;;2.05;1.60;;;;;;;;;;5049824;28;20211;-62
2023/07/19 03:00:04;;;;;;;1.40;1.30;;;;;;;;;;5048795;28;20227;-61
2023/07/19 03:02:31;;;;;;;2.30;1.73;;;;;;;;;;5058077;28;20207;-59
2023/07/19 03:04:58;;;;;;;2.80;1.63;;;;;;;;;;5058443;28;20222;-59
2023/07/19 03:07:26;;;;;;;1.70;1.60;;;;;;;;;;5065053;28;20605;-59
2023/07/19 03:09:53;;;;;;;1.38;1.38;;;;;;;;;;5067767;28;20661;-58
2023/07/19 03:12:20;;;;;;;1.27;1.20;;;;;;;;;;5065561;28;20233;-59
2023/07/19 03:14:48;;;;;;;1.38;1.38;;;;;;;;;;5051437;28;20214;-59
2023/07/19 03:17:15;;;;;;;3.13;1.52;;;;;;;;;;5062304;28;20231;-59
2023/07/19 03:19:42;;;;;;;1.38;1.38;;;;;;;;;;5061231;28;20947;-59
2023/07/19 03:22:09;;;;;;;2.95;1.60;;;;;;;;;;5047716;28;20208;-60
2023/07/19 03:24:37;;;;;;;2.55;1.77;;;;;;;;;;5048077;28;20212;-59
2023/07/19 03:27:04;;;;;;;2.72;1.70;;;;;;;;;;5059957;28;20203;-59
2023/07/19 03:29:31;;;;;;;2.90;1.67;;;;;;;;;;5066479;28;20207;-60
2023/07/19 03:31:58;;;;;;;1.95;1.50;;;;;;;;;;5059565;28;20207;-60
2023/07/19 03:34:25;;;;;;;5.88;1.67;;;;;;;;;;5048782;28;20199;-59
2023/07/19 03:36:52;;;;;;;1.88;1.77;;;;;;;;;;5057947;28;20206;-60
2023/07/19 03:39:19;;;;;;;1.48;1.38;;;;;;;;;;5061520;28;20245;-59
2023/07/19 03:41:48;;;;;;;1.45;1.45;;;;;;;;;;5055885;28;20210;-59
2023/07/19 03:44:15;;;;;;;1.52;1.45;;;;;;;;;;5067617;28;20238;-60
2023/07/19 03:46:42;;;;;;;1.48;1.48;;;;;;;;;;5058544;28;20195;-60
2023/07/19 03:49:09;;;;;;;1.83;1.73;;;;;;;;;;5054139;28;20666;-59
2023/07/19 03:51:36;;;;;;;1.73;1.63;;;;;;;;;;5047331;28;20928;-59
2023/07/19 03:54:03;;;;;;;1.88;1.77;;;;;;;;;;5047261;28;20291;-60
2023/07/19 03:56:30;;;;;;;1.67;1.63;;;;;;;;;;5052082;28;20215;-60
2023/07/19 03:58:59;;;;;;;1.88;1.60;;;;;;;;;;5059628;28;20214;-59
2023/07/19 04:01:26;;;;;;;2.40;1.48;;;;;;;;;;5065172;28;20203;-60
2023/07/19 04:03:53;;;;;;;2.45;1.38;;;;;;;;;;5067204;28;20207;-62
2023/07/19 04:06:20;;;;;;;1.35;1.35;;;;;;;;;;5056840;28;20204;-60
2023/07/19 04:08:47;;;;;;;1.88;1.77;;;;;;;;;;5052711;28;20214;-62
2023/07/19 04:11:14;;;;;;;1.20;1.20;;;;;;;;;;5067928;28;20600;-60
2023/07/19 04:13:41;;;;;;;1.67;1.67;;;;;;;;;;5067685;28;20218;-61
2023/07/19 04:16:09;;;;;;;3.83;1.50;;;;;;;;;;5061555;28;20207;-60
2023/07/19 04:18:36;;;;;;;1.60;1.60;;;;;;;;;;5066461;28;20211;-61
2023/07/19 04:21:03;;;;;;;2.42;1.90;;;;;;;;;;5065463;28;20230;-60
2023/07/19 04:23:30;;;;;;;1.85;1.73;;;;;;;;;;5067535;28;20207;-60
2023/07/19 04:25:57;;;;;;;1.42;1.40;;;;;;;;;;5054371;28;20222;-60
2023/07/19 04:28:24;;;;;;;1.58;1.58;;;;;;;;;;5062605;28;20203;-59
2023/07/19 04:30:51;;;;;;;3.90;1.60;;;;;;;;;;5054086;28;20211;-60
2023/07/19 04:33:20;;;;;;;7.85;1.70;;;;;;;;;;5056593;28;20203;-60
2023/07/19 04:35:48;;;;;;;1.33;1.33;;;;;;;;;;5056612;28;20218;-60
2023/07/19 04:38:15;;;;;;;1.75;1.55;;;;;;;;;;5057853;28;20219;-60
2023/07/19 04:40:42;;;;;;;1.70;1.60;;;;;;;;;;5055030;28;20230;-60
2023/07/19 04:43:09;;;;;;;1.25;1.25;;;;;;;;;;5052170;28;20570;-60
2023/07/19 04:45:36;;;;;;;1.40;1.30;;;;;;;;;;5054219;28;20893;-60
2023/07/19 04:48:04;;;;;;;2.30;1.38;;;;;;;;;;5056868;28;20867;-60
2023/07/19 04:50:32;;;;;;;3.63;1.90;;;;;;;;;;5066062;28;20199;-60
2023/07/19 04:52:59;;;;;;;1.52;1.42;;;;;;;;;;5057857;28;20211;-59
2023/07/19 04:55:26;;;;;;;1.58;1.52;;;;;;;;;;5063710;28;20203;-60
2023/07/19 04:57:53;;;;;;;1.48;1.38;;;;;;;;;;5054147;28;21429;-60
2023/07/19 05:00:20;;;;;;;1.73;1.48;;;;;;;;;;5065494;28;20691;-60
2023/07/19 05:02:47;;;;;;;1.75;1.65;;;;;;;;;;5059639;28;20302;-60
2023/07/19 05:05:15;;;;;;;1.45;1.35;;;;;;;;;;5065216;28;20207;-61
2023/07/19 05:07:43;;;;;;;1.58;1.48;;;;;;;;;;5053554;28;20235;-60
2023/07/19 05:10:10;;;;;;;1.67;1.48;;;;;;;;;;5069328;28;20246;-60
2023/07/19 05:12:38;;;;;;;1.15;1.15;;;;;;;;;;5067516;28;20214;-60
2023/07/19 05:15:05;;;;;;;1.85;1.50;;;;;;;;;;5070825;28;20199;-60
2023/07/19 05:17:32;;;;;;;5.57;1.58;;;;;;;;;;5069001;28;20236;-60
2023/07/19 05:19:59;;;;;;;1.42;1.35;;;;;;;;;;5064157;28;20647;-60
2023/07/19 05:22:28;;;;;;;1.40;1.30;;;;;;;;;;5053204;28;20215;-62
2023/07/19 05:24:57;;;;;;;7.22;1.55;;;;;;;;;;5049236;28;20971;-61
2023/07/19 05:27:24;;;;;;;1.67;1.58;;;;;;;;;;5058518;28;20591;-61
2023/07/19 05:29:51;;;;;;;2.50;1.30;;;;;;;;;;5055969;28;20212;-62
2023/07/19 05:32:18;;;;;;;1.50;1.40;;;;;;;;;;5051185;28;20234;-61
2023/07/19 05:34:45;;;;;;;1.50;1.40;;;;;;;;;;5054098;28;20207;-61
2023/07/19 05:37:12;;;;;;;3.35;1.30;;;;;;;;;;5066418;28;20324;-61
2023/07/19 05:39:39;;;;;;;3.60;1.70;;;;;;;;;;5050182;28;20625;-61
2023/07/19 05:42:08;;;;;;;1.88;1.75;;;;;;;;;;5060610;28;20214;-61
2023/07/19 05:44:35;;;;;;;1.30;1.20;;;;;;;;;;5068316;28;20207;-61
2023/07/19 05:47:02;;;;;;;1.42;1.42;;;;;;;;;;5063669;28;20458;-61
2023/07/19 05:49:29;;;;;;;1.75;1.63;;;;;;;;;;5066179;28;20204;-62
2023/07/19 05:51:57;;;;;;;1.55;1.48;;;;;;;;;;5067533;28;20818;-61
2023/07/19 05:54:24;;;;;;;1.38;1.27;;;;;;;;;;5070141;28;20215;-62
2023/07/19 05:56:51;;;;;;;2.05;1.40;;;;;;;;;;5070203;28;20219;-61
2023/07/19 05:59:20;;;;;;;1.48;1.48;;;;;;;;;;5069975;28;20276;-61
2023/07/19 06:01:47;;;;;;;1.55;1.50;;;;;;;;;;5069956;28;20230;-59
2023/07/19 06:04:14;;;;;;;2.40;1.42;;;;;;;;;;5070067;28;20210;-59
2023/07/19 06:06:41;;;;;;;1.92;1.38;;;;;;;;;;5069128;28;20211;-59
2023/07/19 06:09:09;;;;;;;1.65;1.52;;;;;;;;;;5060992;28;20200;-59
2023/07/19 06:11:36;;;;;;;3.50;1.58;;;;;;;;;;5052422;28;20665;-59
2023/07/19 06:14:03;;;;;;;1.45;1.30;;;;;;;;;;5058491;28;20208;-59
2023/07/19 06:16:32;;;;;;;6.85;1.63;;;;;;;;;;5050756;28;20232;-58
2023/07/19 06:18:59;;;;;;;1.70;1.50;;;;;;;;;;5059688;28;20203;-59
2023/07/19 06:21:27;;;;;;;1.40;1.40;;;;;;;;;;5069654;28;20245;-59
2023/07/19 06:23:54;;;;;;;1.38;1.38;;;;;;;;;;5069930;28;20206;-58
2023/07/19 06:26:21;;;;;;;1.85;1.55;;;;;;;;;;5068899;28;20211;-59
2023/07/19 06:28:48;;;;;;;1.40;1.40;;;;;;;;;;5069440;28;20217;-59
2023/07/19 06:31:16;;;;;;;1.63;1.17;;;;;;;;;;5069517;28;20246;-59
2023/07/19 06:33:44;;;;;;;1.70;1.60;;;;;;;;;;5060546;28;20212;-59
2023/07/19 06:36:11;;;;;;;1.63;1.33;;;;;;;;;;5049370;28;20218;-59
2023/07/19 06:38:38;;;;;;;1.50;1.50;;;;;;;;;;5060837;28;20207;-58
2023/07/19 06:41:06;;;;;;;1.42;1.40;;;;;;;;;;5057450;28;20677;-58
2023/07/19 06:43:33;;;;;;;4.50;1.77;;;;;;;;;;5061025;28;20230;-58
2023/07/19 06:46:00;;;;;;;1.20;1.20;;;;;;;;;;5048981;28;20393;-59
2023/07/19 06:48:27;;;;;;;1.55;1.40;;;;;;;;;;5049113;28;20227;-58
2023/07/19 06:50:56;;;;;;;2.72;1.60;;;;;;;;;;5050029;28;20204;-58
2023/07/19 06:53:23;;;;;;;1.20;1.20;;;;;;;;;;5049519;28;20227;-58
2023/07/19 06:55:53;;;;;;;1.42;1.33;;;;;;;;;;5048733;28;20207;-59
2023/07/19 06:58:20;;;;;;;4.00;1.30;;;;;;;;;;5048371;28;20203;-57
2023/07/19 07:00:47;;;;;;;2.75;1.27;;;;;;;;;;5062114;28;20223;-57
2023/07/19 07:03:14;;;;;;;1.60;1.50;;;;;;;;;;5060676;28;20199;-57
2023/07/19 07:05:45;;;;;;;1.13;1.13;;;;;;;;;;5047750;28;20211;-58
2023/07/19 07:08:13;;;;;;;1.30;1.30;;;;;;;;;;5061328;28;20211;-57
2023/07/19 07:10:42;;;;;;;0.93;0.93;;;;;;;;;;5056724;28;20199;-58
2023/07/19 07:13:09;;;;;;;2.63;1.85;;;;;;;;;;5064124;28;20203;-58
2023/07/19 07:15:36;;;;;;;1.52;1.42;;;;;;;;;;5047745;28;20222;-58
2023/07/19 07:18:03;;;;;;;1.30;1.20;;;;;;;;;;5048302;28;20235;-58
2023/07/19 07:20:30;;;;;;;0.98;0.98;;;;;;;;;;5067312;28;20227;-58
2023/07/19 07:22:58;;;;;;;1.60;1.20;;;;;;;;;;5067429;28;20195;-58
2023/07/19 07:25:26;;;;;;;1.77;1.30;;;;;;;;;;5067125;28;20203;-57
2023/07/19 07:27:53;;;;;;;1.95;1.42;;;;;;;;;;5067245;28;20207;-58
2023/07/19 07:30:20;;;;;;;4.60;1.30;;;;;;;;;;5065379;28;20192;-57
2023/07/19 07:32:49;;;;;;;1.40;1.33;;;;;;;;;;5060119;28;20642;-57
2023/07/19 07:35:16;;;;;;;3.60;1.70;;;;;;;;;;5049728;28;20419;-59
2023/07/19 07:37:43;;;;;;;1.65;1.42;;;;;;;;;;5054412;28;20251;-59
2023/07/19 07:40:11;;;;;;;1.70;1.60;;;;;;;;;;5067415;28;20294;-59
2023/07/19 07:42:40;;;;;;;1.23;1.23;;;;;;;;;;5067823;28;20225;-57
2023/07/19 07:45:08;;;;;;;2.05;1.20;;;;;;;;;;5067553;28;20305;-57
2023/07/19 07:47:36;;;;;;;1.30;1.20;;;;;;;;;;5067703;28;20214;-58
2023/07/19 07:50:04;;;;;;;4.32;1.38;;;;;;;;;;5067658;28;20221;-63
2023/07/19 07:52:31;;;;;;;1.10;1.10;;;;;;;;;;5066053;28;20214;-63
2023/07/19 07:54:58;;;;;;;1.38;1.27;;;;;;;;;;5060456;28;20222;-60
2023/07/19 07:57:25;;;;;;;2.08;1.00;;;;;;;;;;5047621;28;20203;-58
2023/07/19 07:59:54;;;;;;;1.40;1.25;;;;;;;;;;5047590;28;20203;-59
2023/07/19 08:02:21;;;;;;;1.13;1.13;;;;;;;;;;5047552;28;20238;-59
2023/07/19 08:04:48;;;;;;;1.15;1.05;;;;;;;;;;5063067;28;20216;-58
2023/07/19 08:07:15;;;;;;;2.67;1.23;;;;;;;;;;5046920;28;20642;-59
2023/07/19 08:09:42;;;;;;;1.30;1.02;;;;;;;;;;5046933;28;20231;-60
2023/07/19 08:12:09;;;;;;;1.10;1.10;;;;;;;;;;5047246;28;20195;-60
2023/07/19 08:14:37;;;;;;;1.75;1.27;;;;;;;;;;5047143;28;20694;-60
2023/07/19 08:17:06;;;;;;;2.22;1.48;;;;;;;;;;5047163;28;20235;-59
2023/07/19 08:19:33;;;;;;;1.00;0.93;;;;;;;;;;5047089;28;20298;-59
2023/07/19 08:22:01;;;;;;;1.30;1.20;;;;;;;;;;5047072;28;20219;-60
2023/07/19 08:24:28;;;;;;;2.25;0.95;;;;;;;;;;5047319;28;20200;-59
2023/07/19 08:26:55;;;;;;;1.52;1.38;;;;;;;;;;5047229;28;20204;-59
2023/07/19 08:29:22;;;;;;;1.70;1.05;;;;;;;;;;5047077;28;20207;-60
2023/07/19 08:31:49;;;;;;;1.42;1.35;;;;;;;;;;5047168;28;20215;-59
2023/07/19 08:34:17;;;;;;;1.48;1.27;;;;;;;;;;5047909;28;20225;-60
2023/07/19 08:36:44;;;;;;;1.17;1.17;;;;;;;;;;5058747;28;20215;-60
2023/07/19 08:39:11;;;;;;;1.38;1.27;;;;;;;;;;5058856;28;20345;-59
2023/07/19 08:41:38;;;;;;;1.30;1.17;;;;;;;;;;5055450;28;20234;-59
2023/07/19 08:44:05;;;;;;;3.05;1.20;;;;;;;;;;5054529;28;20231;-60
2023/07/19 08:46:34;;;;;;;2.22;1.40;;;;;;;;;;5061443;28;20578;-59
2023/07/19 08:49:02;;;;;;;1.30;1.20;;;;;;;;;;5066339;28;20415;-59
2023/07/19 08:51:32;;;;;;;1.33;1.30;;;;;;;;;;5065425;28;20653;-59
2023/07/19 08:54:00;;;;;;;1.15;1.13;;;;;;;;;;5056547;28;20243;-59
2023/07/19 08:56:27;;;;;;;1.20;1.10;;;;;;;;;;5047059;28;20239;-59
2023/07/19 08:58:54;;;;;;;1.35;1.27;;;;;;;;;;5045532;28;20204;-60
2023/07/19 09:01:21;;;;;;;1.27;1.17;;;;;;;;;;5050704;28;20225;-60
2023/07/19 09:03:48;;;;;;;1.10;1.10;;;;;;;;;;5064588;28;20211;-60
2023/07/19 09:06:23;;;;;;;1.30;1.20;;;;;;;;;;5066371;28;20233;-60
2023/07/19 09:08:54;;;;;;;1.25;1.23;;;;;;;;;;5065585;28;20206;-60
2023/07/19 09:11:21;;;;;;;1.15;1.15;;;;;;;;;;5066771;28;20210;-60
2023/07/19 09:13:53;;;;;;;0.90;0.90;;;;;;;;;;5063172;28;20276;-59
2023/07/19 09:16:26;;;;;;;1.40;1.25;;;;;;;;;;5049615;28;20292;-60
2023/07/19 09:18:53;;;;;;;1.30;1.30;;;;;;;;;;5051892;28;20203;-59
2023/07/19 09:21:30;;;;;;;0.90;0.90;;;;;;;;;;5062741;28;20227;-59
2023/07/19 09:23:59;;;;;;;1.45;1.35;;;;;;;;;;5067136;28;20198;-59
2023/07/19 09:26:26;;;;;;;2.50;1.20;;;;;;;;;;5070488;28;20295;-59
2023/07/19 09:28:53;;;;;;;1.25;1.00;;;;;;;;;;5068187;28;20571;-58
2023/07/19 09:31:20;;;;;;;1.25;1.25;;;;;;;;;;5069719;28;20205;-59
2023/07/19 09:33:47;;;;;;;1.30;1.30;;;;;;;;;;5068460;28;20202;-59
2023/07/19 09:36:18;;;;;;;1.35;1.25;;;;;;;;;;5069743;28;20281;-59
2023/07/19 09:38:46;;;;;;;1.25;1.25;;;;;;;;;;5063858;28;20638;-59
2023/07/19 09:41:14;;;;;;;1.15;1.13;;;;;;;;;;5070085;28;20237;-59
2023/07/19 09:43:41;;;;;;;1.98;1.35;;;;;;;;;;5052688;28;20227;-59
2023/07/19 09:46:08;;;;;;;0.98;0.98;;;;;;;;;;5065959;28;20203;-59
2023/07/19 09:48:35;;;;;;;2.03;1.20;;;;;;;;;;5050237;28;20214;-59
2023/07/19 09:51:03;;;;;;;2.28;1.00;;;;;;;;;;5049995;28;20654;-59
2023/07/19 09:53:31;;;;;;;2.40;1.02;;;;;;;;;;5061836;28;20214;-59
2023/07/19 09:55:59;;;;;;;0.93;0.93;;;;;;;;;;5049591;28;20866;-59
2023/07/19 09:58:27;;;;;;;1.00;1.00;;;;;;;;;;5064156;28;20317;-59
2023/07/19 10:00:54;;;;;;;1.20;0.90;;;;;;;;;;5065994;28;20214;-59
2023/07/19 10:03:22;;;;;;;1.40;1.30;;;;;;;;;;5066577;28;20205;-59
2023/07/19 10:05:55;;;;;;;1.08;1.00;;;;;;;;;;5059350;28;20559;-58
2023/07/19 10:08:22;;;;;;;1.10;1.10;;;;;;;;;;5049897;28;20211;-58
2023/07/19 10:10:56;;;;;;;2.20;0.90;;;;;;;;;;5050563;28;20230;-58
2023/07/19 10:13:29;;;;;;;1.10;1.10;;;;;;;;;;5054702;28;20203;-58
2023/07/19 10:15:56;;;;;;;1.10;1.00;;;;;;;;;;5060694;28;20305;-60
2023/07/19 10:18:24;;;;;;;1.33;1.10;;;;;;;;;;5059930;28;20235;-59
2023/07/19 10:21:00;;;;;;;1.10;1.10;;;;;;;;;;5054650;28;20234;-59
2023/07/19 10:23:30;;;;;;;1.95;0.95;;;;;;;;;;5066604;28;20214;-59
2023/07/19 10:25:58;;;;;;;2.00;1.85;;;;;;;;;;5048661;28;20575;-59
2023/07/19 10:28:30;;;;;;;1.75;1.48;;;;;;;;;;5053777;28;20229;-59
2023/07/19 10:30:57;;;;;;;0.90;0.90;;;;;;;;;;5059222;28;20218;-59
2023/07/19 10:33:25;;;;;;;1.55;1.00;;;;;;;;;;5055785;28;20207;-59
2023/07/19 10:35:53;;;;;;;1.30;1.20;;;;;;;;;;5052249;28;20211;-60
2023/07/19 10:38:21;;;;;;;1.00;1.00;;;;;;;;;;5055159;28;20704;-59
2023/07/19 10:40:50;;;;;;;1.10;1.10;;;;;;;;;;5064094;28;20200;-59
2023/07/19 10:43:17;;;;;;;1.00;1.00;;;;;;;;;;5049536;28;20230;-59
2023/07/19 10:46:03;;;;;;;2.25;0.80;;;;;;;;;;5050212;28;20239;-60
2023/07/19 10:48:33;;;;;;;1.15;1.00;;;;;;;;;;5060871;28;20298;-60
2023/07/19 10:51:00;;;;;;;0.85;0.82;;;;;;;;;;5068510;28;20214;-60
2023/07/19 10:53:28;;;;;;;0.73;0.73;;;;;;;;;;5067653;28;20247;-60
2023/07/19 10:55:55;;;;;;;0.90;0.85;;;;;;;;;;5067584;28;20206;-59
2023/07/19 10:58:22;;;;;;;0.98;0.98;;;;;;;;;;5052919;28;20218;-60
2023/07/19 11:00:49;;;;;;;0.80;0.80;;;;;;;;;;5048440;28;20214;-59
2023/07/19 11:03:17;;;;;;;3.30;0.98;;;;;;;;;;5063995;28;20712;-60
2023/07/19 11:05:48;;;;;;;0.60;0.60;;;;;;;;;;5067937;28;20207;-59
2023/07/19 11:08:21;;;;;;;0.90;0.90;;;;;;;;;;5068068;28;20305;-59
2023/07/19 11:10:49;;;;;;;0.75;0.70;;;;;;;;;;5061415;28;20211;-60
2023/07/19 11:13:17;;;;;;;0.85;0.85;;;;;;;;;;5054678;28;20219;-60
2023/07/19 11:15:44;;;;;;;1.58;0.98;;;;;;;;;;5066236;28;20207;-59
2023/07/19 11:18:11;;;;;;;1.48;0.73;;;;;;;;;;5049089;28;20235;-59
2023/07/19 11:20:39;;;;;;;0.85;0.85;;;;;;;;;;5063344;28;20202;-63
2023/07/19 11:23:08;;;;;;;1.00;1.00;;;;;;;;;;5067877;28;20231;-59
2023/07/19 11:25:38;;;;;;;1.00;1.00;;;;;;;;;;5047881;28;20227;-59
2023/07/19 11:28:05;;;;;;;0.95;0.95;;;;;;;;;;5048267;28;20208;-59
2023/07/19 11:30:38;;;;;;;0.70;0.70;;;;;;;;;;5056375;28;20203;-59
2023/07/19 11:33:06;;;;;;;0.80;0.80;;;;;;;;;;5050546;28;20400;-59
2023/07/19 11:35:33;;;;;;;0.90;0.90;;;;;;;;;;5045683;28;20738;-60
2023/07/19 11:38:01;;;;;;;2.55;0.90;;;;;;;;;;5049642;28;20206;-60
2023/07/19 11:40:29;;;;;;;0.80;0.80;;;;;;;;;;5052637;28;20677;-61
2023/07/19 11:42:58;;;;;;;1.00;1.00;;;;;;;;;;5062692;28;20261;-65
2023/07/19 11:45:26;;;;;;;1.33;1.23;;;;;;;;;;5066480;28;20207;-62
2023/07/19 11:48:00;;;;;;;1.02;0.80;;;;;;;;;;5067707;28;20206;-62
2023/07/19 11:50:27;;;;;;;0.70;0.70;;;;;;;;;;5053365;28;20204;-62
2023/07/19 11:52:59;;;;;;;1.10;1.10;;;;;;;;;;5064988;28;20214;-61
2023/07/19 11:55:26;;;;;;;2.05;1.02;;;;;;;;;;5067073;28;20630;-61
2023/07/19 11:57:55;;;;;;;1.00;0.90;;;;;;;;;;5067653;28;20198;-60
2023/07/19 12:00:23;;;;;;;1.33;1.33;;;;;;;;;;5066741;28;20230;-60
2023/07/19 12:05:33;;;;;;;1.15;0.98;;;;;;;;;;5049332;28;20584;-60
2023/07/19 12:08:00;;;;;;;0.80;0.80;;;;;;;;;;5054930;28;20211;-63
2023/07/19 12:10:28;;;;;;;0.88;0.88;;;;;;;;;;5060289;28;20287;-60
2023/07/19 12:12:57;;;;;;;0.88;0.88;;;;;;;;;;5058099;28;20206;-60
2023/07/19 12:15:24;;;;;;;0.60;0.60;;;;;;;;;;5049854;28;20203;-60
2023/07/19 12:17:52;;;;;;;1.02;0.95;;;;;;;;;;5059633;28;20727;-60
2023/07/19 12:20:19;;;;;;;0.80;0.80;;;;;;;;;;5054477;28;20289;-60
2023/07/19 12:22:47;;;;;;;0.90;0.90;;;;;;;;;;5057082;28;20218;-60
2023/07/19 12:25:14;;;;;;;1.02;0.90;;;;;;;;;;5065787;28;20221;-59
2023/07/19 12:27:42;;;;;;;0.98;0.98;;;;;;;;;;5061986;28;20314;-60
2023/07/19 12:30:11;;;;;;;0.98;0.85;;;;;;;;;;5062003;28;20206;-60
2023/07/19 12:32:38;;;;;;;1.13;1.02;;;;;;;;;;5054541;28;20210;-60
2023/07/19 12:35:06;;;;;;;3.20;0.70;;;;;;;;;;5065816;28;20260;-61
2023/07/19 12:37:34;;;;;;;1.73;0.80;;;;;;;;;;5047320;28;20207;-61
2023/07/19 12:40:01;;;;;;;1.42;0.90;;;;;;;;;;5055153;28;20207;-61
2023/07/19 12:42:29;;;;;;;0.90;0.90;;;;;;;;;;5045860;28;20597;-60
2023/07/19 12:44:56;;;;;;;0.80;0.80;;;;;;;;;;5053645;28;20925;-60
2023/07/19 12:47:24;;;;;;;1.88;1.02;;;;;;;;;;5063283;28;20294;-61
2023/07/19 12:49:51;;;;;;;0.70;0.70;;;;;;;;;;5066083;28;20657;-60
2023/07/19 12:52:20;;;;;;;0.80;0.80;;;;;;;;;;5071031;28;20203;-60
2023/07/19 12:54:47;;;;;;;1.48;0.95;;;;;;;;;;5070606;28;20210;-60
2023/07/19 12:57:14;;;;;;;1.00;1.00;;;;;;;;;;5056208;28;20212;-60
2023/07/19 12:59:41;;;;;;;1.02;1.02;;;;;;;;;;5068279;28;20214;-60
2023/07/19 13:02:09;;;;;;;0.93;0.93;;;;;;;;;;5069835;28;20238;-60
2023/07/19 13:04:37;;;;;;;1.40;0.95;;;;;;;;;;5070210;28;20237;-60
2023/07/19 13:07:05;;;;;;;2.05;0.95;;;;;;;;;;5068268;28;20222;-60
2023/07/19 13:09:32;;;;;;;1.05;0.73;;;;;;;;;;5053842;28;20670;-60
2023/07/19 13:11:59;;;;;;;0.68;0.68;;;;;;;;;;5055196;28;20224;-60
2023/07/19 13:14:26;;;;;;;1.00;1.00;;;;;;;;;;5054061;28;20231;-60
2023/07/19 13:16:53;;;;;;;0.93;0.93;;;;;;;;;;5053551;28;20245;-60
2023/07/19 13:19:20;;;;;;;0.98;0.90;;;;;;;;;;5069275;28;20211;-58
2023/07/19 13:21:49;;;;;;;1.48;1.00;;;;;;;;;;5061555;28;20526;-59
2023/07/19 13:24:16;;;;;;;3.22;1.10;;;;;;;;;;5055962;28;20207;-57
2023/07/19 13:26:44;;;;;;;1.10;0.80;;;;;;;;;;5062665;28;20211;-58
2023/07/19 13:29:12;;;;;;;1.23;1.13;;;;;;;;;;5053495;28;20212;-58
2023/07/19 13:31:39;;;;;;;0.65;0.65;;;;;;;;;;5057769;28;20299;-58
2023/07/19 13:34:06;;;;;;;1.75;0.93;;;;;;;;;;5062246;28;20199;-58
2023/07/19 13:36:33;;;;;;;0.82;0.82;;;;;;;;;;5061668;28;20207;-58
2023/07/19 13:39:02;;;;;;;1.20;1.10;;;;;;;;;;5058338;28;20751;-58
2023/07/19 13:41:29;;;;;;;0.75;0.75;;;;;;;;;;5066838;28;20203;-58
2023/07/19 13:43:56;;;;;;;0.82;0.82;;;;;;;;;;5053289;28;20239;-58
2023/07/19 13:46:23;;;;;;;1.30;1.20;;;;;;;;;;5054933;28;20615;-58
2023/07/19 13:48:50;;;;;;;0.85;0.80;;;;;;;;;;5068377;28;20699;-58
2023/07/19 13:51:17;;;;;;;1.88;0.82;;;;;;;;;;5067559;28;20207;-58
2023/07/19 13:53:44;;;;;;;1.10;0.90;;;;;;;;;;5056571;28;20206;-57
2023/07/19 13:56:13;;;;;;;1.17;0.82;;;;;;;;;;5069684;28;20226;-58
2023/07/19 13:58:40;;;;;;;1.20;1.20;;;;;;;;;;5069663;28;20210;-58
2023/07/19 14:01:07;;;;;;;4.50;1.00;;;;;;;;;;5061224;28;20666;-58
2023/07/19 14:03:34;;;;;;;1.27;1.20;;;;;;;;;;5069390;28;20223;-58
2023/07/19 14:06:01;;;;;;;1.38;1.30;;;;;;;;;;5069183;28;20310;-58
2023/07/19 14:08:28;;;;;;;1.35;1.02;;;;;;;;;;5068527;28;20211;-58
2023/07/19 14:10:55;;;;;;;1.40;1.30;;;;;;;;;;5049789;28;20211;-58
2023/07/19 14:13:24;;;;;;;0.93;0.93;;;;;;;;;;5066031;28;20290;-59
2023/07/19 14:15:51;;;;;;;1.10;1.00;;;;;;;;;;5069543;28;20269;-59
2023/07/19 14:18:18;;;;;;;1.20;1.13;;;;;;;;;;5059686;28;20346;-58
2023/07/19 14:20:45;;;;;;;1.17;1.17;;;;;;;;;;5069501;28;20789;-58
2023/07/19 14:23:12;;;;;;;1.00;1.00;;;;;;;;;;5065063;28;20233;-59
2023/07/19 14:25:39;;;;;;;1.17;1.08;;;;;;;;;;5056917;28;20218;-58
2023/07/19 14:28:06;;;;;;;1.02;1.02;;;;;;;;;;5062003;28;20206;-58
2023/07/19 14:30:35;;;;;;;0.98;0.98;;;;;;;;;;5049589;28;20227;-57
2023/07/19 14:33:03;;;;;;;3.35;1.20;;;;;;;;;;5049049;28;20212;-57
2023/07/19 14:35:30;;;;;;;1.08;1.08;;;;;;;;;;5066036;28;20604;-57
2023/07/19 14:37:57;;;;;;;2.58;1.13;;;;;;;;;;5049520;28;20219;-57
2023/07/19 14:40:24;;;;;;;1.27;1.20;;;;;;;;;;5061992;28;20207;-57
2023/07/19 14:42:51;;;;;;;1.02;0.95;;;;;;;;;;5053105;28;20233;-58
2023/07/19 14:45:19;;;;;;;1.33;1.20;;;;;;;;;;5068588;28;20957;-58
2023/07/19 14:47:47;;;;;;;1.15;1.15;;;;;;;;;;5068048;28;20748;-58